Mounds View, Minnesota
Current Conditions -  °F | °C
As of 5:34 AM on Saturday 25 Oct 2014 (Local Time) from KANE Reporting Station
Clear Clear  
Wind Chill: 54°   Ceiling: Unl
Heat Index: 54°   Visibility: 10mi
Dew Point: 37°   Wind: 9mph
Humidity: 54%   Direction: 280°W
Pressure: 29.97"   Gusts: NA
Location:  45.0755°N, 93.1911°W
Report Text: KANE 251034Z AUTO 28008KT 10SM CLR 12/03 A2997 RMK AO2
Loading
Personal Weather Stations






























Interactive Weather Map New forecast layout! Learn more

10-Day Weather Forecast

Advertisements
Track Severe Weather on mobile